MST,Max TemperatureF,Mean TemperatureF,Min TemperatureF,Max Dew PointF,MeanDew PointF,Min DewpointF,Max Humidity, Mean Humidity, Min Humidity, Max Sea Level PressureIn, Mean Sea Level PressureIn, Min Sea Level PressureIn, Max VisibilityMiles, Mean VisibilityMiles, Min VisibilityMiles, Max Wind SpeedMPH, Mean Wind SpeedMPH, Max Gust SpeedMPH,PrecipitationIn, CloudCover, Events, WindDirDegrees
2012-11-1,62,53,44,30,28,23,57,43,22,30.05,29.99,29.95,10,10,10,10,4,,0.00,2,,352
2012-11-2,60,50,39,30,29,27,65,46,29,30.17,30.12,30.05,10,10,10,10,4,,0.00,0,,133
2012-11-3,57,45,33,30,27,25,70,52,33,30.28,30.22,30.14,10,10,10,7,2,,0.00,0,,86
2012-11-4,60,48,37,32,28,25,65,51,31,30.42,30.36,30.27,10,10,9,7,2,,0.00,0,,107
2012-11-5,60,48,37,34,30,27,65,50,31,30.46,30.40,30.35,10,10,10,8,3,,0.00,0,,73
2012-11-6,59,48,37,34,31,27,76,55,36,30.38,30.28,30.18,10,10,10,6,2,,0.00,0,,63
2012-11-7,57,45,33,34,31,25,75,57,41,30.18,30.03,29.87,10,10,10,8,2,,0.00,0,,96
2012-11-8,69,52,35,30,27,21,70,44,16,29.87,29.66,29.49,10,10,3,31,6,46,0.00,0,,353
2012-11-9,46,40,33,30,26,18,75,62,48,29.73,29.67,29.55,10,10,5,30,14,44,0.00,3,,306
2012-11-10,39,34,26,23,17,12,75,51,36,30.04,29.85,29.70,10,10,4,17,11,22,0.00,2,,312
2012-11-11,37,30,24,18,13,9,69,49,30,30.42,30.26,30.04,10,10,10,22,9,20,0.00,0,,284
2012-11-12,35,27,19,19,17,12,80,65,44,30.46,30.43,30.39,10,10,10,10,6,,0.00,0,,58
2012-11-13,33,30,28,19,19,18,64,62,56,30.29,30.28,30.27,10,10,10,6,3,,0.00,0,,287
2012-11-14,42,33,24,25,21,16,74,61,46,30.28,30.25,30.21,10,10,10,8,2,,0.00,0,,138
2012-11-15,44,34,23,30,23,16,80,66,53,30.34,30.26,30.16,10,10,10,8,2,,0.00,0,,91
2012-11-16,44,38,33,30,28,23,75,66,57,30.16,30.10,30.06,10,10,10,8,3,,0.00,3,,69
2012-11-17,48,40,33,34,31,27,81,66,53,30.09,30.01,29.93,10,10,10,8,3,,0.00,4,,79
2012-11-18,53,46,39,39,35,30,81,67,54,30.13,30.00,29.92,10,10,10,22,7,26,0.01,3,,45
2012-11-19,51,43,35,37,34,28,87,73,54,30.25,30.20,30.12,10,10,10,10,3,,0.00,1,,83
2012-11-20,51,40,30,34,30,25,87,68,47,30.22,30.13,30.03,10,10,10,10,2,,0.00,0,,75
2012-11-21,53,42,30,36,28,21,87,59,38,30.17,30.01,29.94,10,10,10,21,5,24,0.00,1,,48
2012-11-22,44,36,28,27,20,18,70,50,37,30.51,30.39,30.18,10,10,10,13,5,,0.00,0,,56
2012-11-23,42,32,23,21,18,14,69,57,39,30.53,30.45,30.34,10,10,10,5,1,,0.00,0,,123
2012-11-24,44,32,21,23,19,14,74,59,42,30.34,30.22,30.06,10,10,10,6,1,,0.00,0,,132
2012-11-25,44,32,21,28,21,12,80,61,39,30.15,30.05,30.00,10,10,10,7,3,,0.00,0,,176
2012-11-26,42,34,26,28,24,18,86,68,53,30.30,30.24,30.15,10,10,10,8,3,,0.00,2,,161
2012-11-27,41,31,21,27,22,16,93,70,57,30.33,30.26,30.22,10,10,10,7,2,,0.00,0,,112
2012-11-28,41,32,23,28,23,18,86,70,61,30.23,30.12,30.00,10,10,10,7,1,,0.00,0,,114
2012-11-29,46,36,26,28,24,19,75,63,46,30.13,30.06,30.02,10,10,10,9,2,,0.00,1,,90
2012-11-30,55,42,30,36,30,21,75,61,41,30.01,29.91,29.83,10,10,10,17,4,22,0.00,2,,77